sensor_id;sensor_type;location;lat;lon;timestamp;P1;durP1;ratioP1;P2;durP2;ratioP2
49175;SDS011;35012;47.200;9.748;2023-07-22T00:00:46;5.67;;;4.40;;
49175;SDS011;35012;47.200;9.748;2023-07-22T00:03:12;7.87;;;5.27;;
49175;SDS011;35012;47.200;9.748;2023-07-22T00:05:39;8.80;;;4.90;;
49175;SDS011;35012;47.200;9.748;2023-07-22T00:08:05;4.23;;;3.83;;
49175;SDS011;35012;47.200;9.748;2023-07-22T00:10:31;4.30;;;2.90;;
49175;SDS011;35012;47.200;9.748;2023-07-22T00:12:56;2.50;;;2.30;;
49175;SDS011;35012;47.200;9.748;2023-07-22T00:15:22;3.97;;;2.37;;
49175;SDS011;35012;47.200;9.748;2023-07-22T00:17:49;3.10;;;2.80;;
49175;SDS011;35012;47.200;9.748;2023-07-22T00:20:15;4.00;;;2.93;;
49175;SDS011;35012;47.200;9.748;2023-07-22T00:22:41;6.60;;;3.03;;
49175;SDS011;35012;47.200;9.748;2023-07-22T00:25:09;4.80;;;3.43;;
49175;SDS011;35012;47.200;9.748;2023-07-22T00:27:39;4.27;;;3.17;;
49175;SDS011;35012;47.200;9.748;2023-07-22T00:30:06;4.30;;;2.63;;
49175;SDS011;35012;47.200;9.748;2023-07-22T00:32:32;6.93;;;2.83;;
49175;SDS011;35012;47.200;9.748;2023-07-22T00:34:58;3.23;;;2.37;;
49175;SDS011;35012;47.200;9.748;2023-07-22T00:37:23;5.47;;;2.80;;
49175;SDS011;35012;47.200;9.748;2023-07-22T00:39:50;3.53;;;2.70;;
49175;SDS011;35012;47.200;9.748;2023-07-22T00:42:16;5.27;;;3.00;;
49175;SDS011;35012;47.200;9.748;2023-07-22T00:44:42;3.93;;;2.80;;
49175;SDS011;35012;47.200;9.748;2023-07-22T00:47:08;4.03;;;2.40;;
49175;SDS011;35012;47.200;9.748;2023-07-22T00:49:33;3.97;;;2.50;;
49175;SDS011;35012;47.200;9.748;2023-07-22T00:52:00;4.03;;;2.27;;
49175;SDS011;35012;47.200;9.748;2023-07-22T00:54:30;5.23;;;2.67;;
49175;SDS011;35012;47.200;9.748;2023-07-22T00:56:56;3.97;;;2.70;;
49175;SDS011;35012;47.200;9.748;2023-07-22T00:59:23;5.07;;;2.57;;
49175;SDS011;35012;47.200;9.748;2023-07-22T01:01:49;4.10;;;2.90;;
49175;SDS011;35012;47.200;9.748;2023-07-22T01:04:15;4.60;;;3.00;;
49175;SDS011;35012;47.200;9.748;2023-07-22T01:06:42;5.37;;;3.13;;
49175;SDS011;35012;47.200;9.748;2023-07-22T01:09:09;4.13;;;3.00;;
49175;SDS011;35012;47.200;9.748;2023-07-22T01:11:35;3.40;;;2.90;;
49175;SDS011;35012;47.200;9.748;2023-07-22T01:14:01;8.27;;;3.00;;
49175;SDS011;35012;47.200;9.748;2023-07-22T01:16:27;4.67;;;2.87;;
49175;SDS011;35012;47.200;9.748;2023-07-22T01:18:53;5.67;;;2.83;;
49175;SDS011;35012;47.200;9.748;2023-07-22T01:21:21;4.97;;;2.93;;
49175;SDS011;35012;47.200;9.748;2023-07-22T01:23:47;5.27;;;2.77;;
49175;SDS011;35012;47.200;9.748;2023-07-22T01:26:13;3.13;;;2.80;;
49175;SDS011;35012;47.200;9.748;2023-07-22T01:28:39;5.43;;;2.50;;
49175;SDS011;35012;47.200;9.748;2023-07-22T01:31:05;4.30;;;3.13;;
49175;SDS011;35012;47.200;9.748;2023-07-22T01:33:31;4.20;;;2.70;;
49175;SDS011;35012;47.200;9.748;2023-07-22T01:35:57;4.03;;;2.47;;
49175;SDS011;35012;47.200;9.748;2023-07-22T01:38:22;3.93;;;2.80;;
49175;SDS011;35012;47.200;9.748;2023-07-22T01:40:48;4.10;;;3.07;;
49175;SDS011;35012;47.200;9.748;2023-07-22T01:43:14;3.50;;;2.80;;
49175;SDS011;35012;47.200;9.748;2023-07-22T01:45:39;3.83;;;3.07;;
49175;SDS011;35012;47.200;9.748;2023-07-22T01:48:05;5.50;;;3.10;;
49175;SDS011;35012;47.200;9.748;2023-07-22T01:50:31;4.90;;;3.47;;
49175;SDS011;35012;47.200;9.748;2023-07-22T01:52:57;7.40;;;3.20;;
49175;SDS011;35012;47.200;9.748;2023-07-22T01:55:23;6.33;;;2.73;;
49175;SDS011;35012;47.200;9.748;2023-07-22T01:57:48;5.07;;;3.00;;
49175;SDS011;35012;47.200;9.748;2023-07-22T02:00:14;3.97;;;3.10;;
49175;SDS011;35012;47.200;9.748;2023-07-22T02:02:40;6.83;;;3.13;;
49175;SDS011;35012;47.200;9.748;2023-07-22T02:05:07;4.03;;;3.10;;
49175;SDS011;35012;47.200;9.748;2023-07-22T02:07:34;3.93;;;2.90;;
49175;SDS011;35012;47.200;9.748;2023-07-22T02:10:00;4.17;;;2.63;;
49175;SDS011;35012;47.200;9.748;2023-07-22T02:12:25;4.53;;;2.73;;
49175;SDS011;35012;47.200;9.748;2023-07-22T02:14:51;3.13;;;2.70;;
49175;SDS011;35012;47.200;9.748;2023-07-22T02:17:16;5.83;;;2.40;;
49175;SDS011;35012;47.200;9.748;2023-07-22T02:19:42;4.70;;;2.80;;
49175;SDS011;35012;47.200;9.748;2023-07-22T02:22:08;3.50;;;2.50;;
49175;SDS011;35012;47.200;9.748;2023-07-22T02:24:34;5.27;;;2.90;;
49175;SDS011;35012;47.200;9.748;2023-07-22T02:27:00;3.27;;;2.77;;
49175;SDS011;35012;47.200;9.748;2023-07-22T02:29:25;3.67;;;2.90;;
49175;SDS011;35012;47.200;9.748;2023-07-22T02:31:51;6.63;;;2.77;;
49175;SDS011;35012;47.200;9.748;2023-07-22T02:34:16;5.07;;;2.80;;
49175;SDS011;35012;47.200;9.748;2023-07-22T02:36:42;3.83;;;2.47;;
49175;SDS011;35012;47.200;9.748;2023-07-22T02:39:07;3.60;;;2.77;;
49175;SDS011;35012;47.200;9.748;2023-07-22T02:41:36;7.23;;;2.90;;
49175;SDS011;35012;47.200;9.748;2023-07-22T02:44:02;4.43;;;3.07;;
49175;SDS011;35012;47.200;9.748;2023-07-22T02:46:28;4.53;;;2.67;;
49175;SDS011;35012;47.200;9.748;2023-07-22T02:48:54;3.37;;;2.93;;
49175;SDS011;35012;47.200;9.748;2023-07-22T02:51:20;4.13;;;2.67;;
49175;SDS011;35012;47.200;9.748;2023-07-22T02:53:46;2.77;;;2.47;;
49175;SDS011;35012;47.200;9.748;2023-07-22T02:56:12;3.80;;;3.00;;
49175;SDS011;35012;47.200;9.748;2023-07-22T02:58:38;4.73;;;2.83;;
49175;SDS011;35012;47.200;9.748;2023-07-22T03:01:04;7.23;;;3.30;;
49175;SDS011;35012;47.200;9.748;2023-07-22T03:03:30;3.27;;;2.90;;
49175;SDS011;35012;47.200;9.748;2023-07-22T03:05:58;6.13;;;3.10;;
49175;SDS011;35012;47.200;9.748;2023-07-22T03:08:24;3.07;;;2.60;;
49175;SDS011;35012;47.200;9.748;2023-07-22T03:10:50;5.60;;;3.20;;
49175;SDS011;35012;47.200;9.748;2023-07-22T03:13:16;7.27;;;3.17;;
49175;SDS011;35012;47.200;9.748;2023-07-22T03:15:41;9.73;;;3.53;;
49175;SDS011;35012;47.200;9.748;2023-07-22T03:18:07;5.07;;;3.50;;
49175;SDS011;35012;47.200;9.748;2023-07-22T03:20:35;6.47;;;3.40;;
49175;SDS011;35012;47.200;9.748;2023-07-22T03:23:04;6.27;;;3.20;;
49175;SDS011;35012;47.200;9.748;2023-07-22T03:25:30;3.20;;;2.90;;
49175;SDS011;35012;47.200;9.748;2023-07-22T03:27:56;6.33;;;3.27;;
49175;SDS011;35012;47.200;9.748;2023-07-22T03:30:22;7.93;;;3.83;;
49175;SDS011;35012;47.200;9.748;2023-07-22T03:32:48;5.97;;;3.77;;
49175;SDS011;35012;47.200;9.748;2023-07-22T03:35:16;6.17;;;3.50;;
49175;SDS011;35012;47.200;9.748;2023-07-22T03:37:42;6.93;;;3.03;;
49175;SDS011;35012;47.200;9.748;2023-07-22T03:40:08;4.30;;;3.17;;
49175;SDS011;35012;47.200;9.748;2023-07-22T03:42:47;5.50;;;3.13;;
49175;SDS011;35012;47.200;9.748;2023-07-22T03:45:17;8.70;;;3.50;;
49175;SDS011;35012;47.200;9.748;2023-07-22T03:47:50;5.50;;;3.27;;
49175;SDS011;35012;47.200;9.748;2023-07-22T03:50:17;6.00;;;3.67;;
49175;SDS011;35012;47.200;9.748;2023-07-22T03:52:43;3.60;;;3.30;;
49175;SDS011;35012;47.200;9.748;2023-07-22T03:55:08;4.53;;;3.67;;
49175;SDS011;35012;47.200;9.748;2023-07-22T03:57:34;4.70;;;3.67;;
49175;SDS011;35012;47.200;9.748;2023-07-22T03:59:59;7.47;;;4.30;;
49175;SDS011;35012;47.200;9.748;2023-07-22T04:02:25;4.70;;;4.20;;
49175;SDS011;35012;47.200;9.748;2023-07-22T04:04:52;5.30;;;3.57;;
49175;SDS011;35012;47.200;9.748;2023-07-22T04:07:19;6.67;;;4.00;;
49175;SDS011;35012;47.200;9.748;2023-07-22T04:09:44;3.80;;;3.47;;
49175;SDS011;35012;47.200;9.748;2023-07-22T04:12:10;7.07;;;4.00;;
49175;SDS011;35012;47.200;9.748;2023-07-22T04:14:36;5.90;;;4.40;;
49175;SDS011;35012;47.200;9.748;2023-07-22T04:17:02;3.93;;;3.53;;
49175;SDS011;35012;47.200;9.748;2023-07-22T04:19:29;6.97;;;3.73;;
49175;SDS011;35012;47.200;9.748;2023-07-22T04:21:55;4.37;;;3.97;;
49175;SDS011;35012;47.200;9.748;2023-07-22T04:24:20;7.53;;;3.70;;
49175;SDS011;35012;47.200;9.748;2023-07-22T04:26:46;5.90;;;3.50;;
49175;SDS011;35012;47.200;9.748;2023-07-22T04:29:12;4.30;;;3.30;;
49175;SDS011;35012;47.200;9.748;2023-07-22T04:31:38;4.93;;;3.50;;
49175;SDS011;35012;47.200;9.748;2023-07-22T04:34:04;4.27;;;3.80;;
49175;SDS011;35012;47.200;9.748;2023-07-22T04:36:33;4.07;;;3.53;;
49175;SDS011;35012;47.200;9.748;2023-07-22T04:38:59;6.27;;;3.97;;
49175;SDS011;35012;47.200;9.748;2023-07-22T04:41:24;4.70;;;3.73;;
49175;SDS011;35012;47.200;9.748;2023-07-22T04:43:50;4.23;;;3.83;;
49175;SDS011;35012;47.200;9.748;2023-07-22T04:46:16;4.97;;;3.37;;
49175;SDS011;35012;47.200;9.748;2023-07-22T04:48:42;4.63;;;3.80;;
49175;SDS011;35012;47.200;9.748;2023-07-22T04:51:07;4.27;;;3.87;;
49175;SDS011;35012;47.200;9.748;2023-07-22T04:53:33;4.33;;;3.60;;
49175;SDS011;35012;47.200;9.748;2023-07-22T04:55:58;4.83;;;3.50;;
49175;SDS011;35012;47.200;9.748;2023-07-22T04:58:24;5.80;;;3.50;;
49175;SDS011;35012;47.200;9.748;2023-07-22T05:00:50;4.87;;;3.33;;
49175;SDS011;35012;47.200;9.748;2023-07-22T05:03:16;3.87;;;3.47;;
49175;SDS011;35012;47.200;9.748;2023-07-22T05:05:41;4.73;;;3.70;;
49175;SDS011;35012;47.200;9.748;2023-07-22T05:08:07;4.90;;;2.63;;
49175;SDS011;35012;47.200;9.748;2023-07-22T05:10:34;3.77;;;3.03;;
49175;SDS011;35012;47.200;9.748;2023-07-22T05:13:03;2.97;;;2.53;;
49175;SDS011;35012;47.200;9.748;2023-07-22T05:15:30;4.20;;;2.90;;
49175;SDS011;35012;47.200;9.748;2023-07-22T05:17:56;4.57;;;2.97;;
49175;SDS011;35012;47.200;9.748;2023-07-22T05:20:21;4.73;;;2.90;;
49175;SDS011;35012;47.200;9.748;2023-07-22T05:22:47;4.43;;;2.97;;
49175;SDS011;35012;47.200;9.748;2023-07-22T05:25:13;3.20;;;2.90;;
49175;SDS011;35012;47.200;9.748;2023-07-22T05:27:39;4.77;;;3.53;;
49175;SDS011;35012;47.200;9.748;2023-07-22T05:30:05;5.07;;;3.87;;
49175;SDS011;35012;47.200;9.748;2023-07-22T05:32:31;4.40;;;3.73;;
49175;SDS011;35012;47.200;9.748;2023-07-22T05:34:57;5.13;;;3.80;;
49175;SDS011;35012;47.200;9.748;2023-07-22T05:37:23;5.57;;;4.00;;
49175;SDS011;35012;47.200;9.748;2023-07-22T05:39:49;4.50;;;4.10;;
49175;SDS011;35012;47.200;9.748;2023-07-22T05:42:16;5.57;;;3.50;;
49175;SDS011;35012;47.200;9.748;2023-07-22T05:44:42;4.33;;;3.93;;
49175;SDS011;35012;47.200;9.748;2023-07-22T05:47:07;5.57;;;4.07;;
49175;SDS011;35012;47.200;9.748;2023-07-22T05:49:33;5.53;;;3.83;;
49175;SDS011;35012;47.200;9.748;2023-07-22T05:51:58;4.30;;;3.37;;
49175;SDS011;35012;47.200;9.748;2023-07-22T05:54:24;4.33;;;3.47;;
49175;SDS011;35012;47.200;9.748;2023-07-22T05:56:49;4.63;;;3.47;;
49175;SDS011;35012;47.200;9.748;2023-07-22T05:59:15;3.73;;;3.30;;
49175;SDS011;35012;47.200;9.748;2023-07-22T06:01:40;7.40;;;3.90;;
49175;SDS011;35012;47.200;9.748;2023-07-22T06:04:06;4.37;;;3.97;;
49175;SDS011;35012;47.200;9.748;2023-07-22T06:06:31;3.50;;;3.20;;
49175;SDS011;35012;47.200;9.748;2023-07-22T06:08:57;4.17;;;3.37;;
49175;SDS011;35012;47.200;9.748;2023-07-22T06:11:22;3.70;;;3.37;;
49175;SDS011;35012;47.200;9.748;2023-07-22T06:13:48;7.33;;;3.77;;
49175;SDS011;35012;47.200;9.748;2023-07-22T06:16:14;4.20;;;3.63;;
49175;SDS011;35012;47.200;9.748;2023-07-22T06:18:39;4.57;;;3.80;;
49175;SDS011;35012;47.200;9.748;2023-07-22T06:21:05;6.27;;;4.10;;
49175;SDS011;35012;47.200;9.748;2023-07-22T06:23:31;5.27;;;4.13;;
49175;SDS011;35012;47.200;9.748;2023-07-22T06:25:56;5.07;;;4.17;;
49175;SDS011;35012;47.200;9.748;2023-07-22T06:28:22;4.77;;;4.30;;
49175;SDS011;35012;47.200;9.748;2023-07-22T06:30:47;4.93;;;3.93;;
49175;SDS011;35012;47.200;9.748;2023-07-22T06:33:13;3.97;;;3.60;;
49175;SDS011;35012;47.200;9.748;2023-07-22T06:39:00;5.13;;;4.63;;
49175;SDS011;35012;47.200;9.748;2023-07-22T06:41:26;6.40;;;4.60;;
49175;SDS011;35012;47.200;9.748;2023-07-22T06:43:51;6.70;;;4.70;;
49175;SDS011;35012;47.200;9.748;2023-07-22T06:46:17;4.80;;;4.30;;
49175;SDS011;35012;47.200;9.748;2023-07-22T06:48:44;4.80;;;4.30;;
49175;SDS011;35012;47.200;9.748;2023-07-22T06:51:09;4.67;;;4.27;;
49175;SDS011;35012;47.200;9.748;2023-07-22T06:53:35;4.30;;;3.63;;
49175;SDS011;35012;47.200;9.748;2023-07-22T06:56:01;4.03;;;3.33;;
49175;SDS011;35012;47.200;9.748;2023-07-22T06:58:26;3.53;;;3.13;;
49175;SDS011;35012;47.200;9.748;2023-07-22T07:00:53;3.80;;;2.63;;
49175;SDS011;35012;47.200;9.748;2023-07-22T07:03:19;3.20;;;2.33;;
49175;SDS011;35012;47.200;9.748;2023-07-22T07:05:55;3.93;;;2.70;;
49175;SDS011;35012;47.200;9.748;2023-07-22T07:08:22;3.47;;;3.00;;
49175;SDS011;35012;47.200;9.748;2023-07-22T07:10:48;4.00;;;2.87;;
49175;SDS011;35012;47.200;9.748;2023-07-22T07:13:14;4.23;;;2.90;;
49175;SDS011;35012;47.200;9.748;2023-07-22T07:15:40;3.73;;;2.60;;
49175;SDS011;35012;47.200;9.748;2023-07-22T07:18:05;3.20;;;2.90;;
49175;SDS011;35012;47.200;9.748;2023-07-22T07:20:31;3.27;;;2.97;;
49175;SDS011;35012;47.200;9.748;2023-07-22T07:22:56;2.40;;;2.13;;
49175;SDS011;35012;47.200;9.748;2023-07-22T07:25:22;2.67;;;2.47;;
49175;SDS011;35012;47.200;9.748;2023-07-22T07:27:48;3.30;;;2.60;;
49175;SDS011;35012;47.200;9.748;2023-07-22T07:30:13;3.27;;;2.33;;
49175;SDS011;35012;47.200;9.748;2023-07-22T07:32:39;3.27;;;2.80;;
49175;SDS011;35012;47.200;9.748;2023-07-22T07:35:05;4.77;;;2.90;;
49175;SDS011;35012;47.200;9.748;2023-07-22T07:37:32;3.70;;;2.40;;
49175;SDS011;35012;47.200;9.748;2023-07-22T07:39:57;3.30;;;2.77;;
49175;SDS011;35012;47.200;9.748;2023-07-22T07:42:26;2.93;;;2.63;;
49175;SDS011;35012;47.200;9.748;2023-07-22T07:44:52;4.80;;;2.73;;
49175;SDS011;35012;47.200;9.748;2023-07-22T07:47:18;4.03;;;2.90;;
49175;SDS011;35012;47.200;9.748;2023-07-22T07:49:44;3.13;;;2.83;;
49175;SDS011;35012;47.200;9.748;2023-07-22T07:52:10;2.57;;;2.37;;
49175;SDS011;35012;47.200;9.748;2023-07-22T07:54:35;3.50;;;2.93;;
49175;SDS011;35012;47.200;9.748;2023-07-22T07:57:01;2.90;;;2.60;;
49175;SDS011;35012;47.200;9.748;2023-07-22T07:59:26;3.00;;;2.73;;
49175;SDS011;35012;47.200;9.748;2023-07-22T08:01:52;3.30;;;2.73;;
49175;SDS011;35012;47.200;9.748;2023-07-22T08:04:18;3.17;;;2.63;;
49175;SDS011;35012;47.200;9.748;2023-07-22T08:06:43;3.17;;;2.70;;
49175;SDS011;35012;47.200;9.748;2023-07-22T08:09:10;2.83;;;2.60;;
49175;SDS011;35012;47.200;9.748;2023-07-22T08:11:37;3.10;;;2.80;;
49175;SDS011;35012;47.200;9.748;2023-07-22T08:14:03;4.53;;;3.00;;
49175;SDS011;35012;47.200;9.748;2023-07-22T08:16:30;2.80;;;2.60;;
49175;SDS011;35012;47.200;9.748;2023-07-22T08:18:56;3.27;;;2.97;;
49175;SDS011;35012;47.200;9.748;2023-07-22T08:21:21;4.13;;;2.73;;
49175;SDS011;35012;47.200;9.748;2023-07-22T08:23:47;2.60;;;2.30;;
49175;SDS011;35012;47.200;9.748;2023-07-22T08:26:12;3.87;;;2.40;;
49175;SDS011;35012;47.200;9.748;2023-07-22T08:28:38;3.93;;;2.83;;
49175;SDS011;35012;47.200;9.748;2023-07-22T08:31:04;3.13;;;2.40;;
49175;SDS011;35012;47.200;9.748;2023-07-22T08:33:30;3.60;;;2.90;;
49175;SDS011;35012;47.200;9.748;2023-07-22T08:35:56;3.30;;;2.57;;
49175;SDS011;35012;47.200;9.748;2023-07-22T08:38:21;2.90;;;2.50;;
49175;SDS011;35012;47.200;9.748;2023-07-22T08:40:50;3.67;;;2.90;;
49175;SDS011;35012;47.200;9.748;2023-07-22T08:43:18;3.60;;;2.50;;
49175;SDS011;35012;47.200;9.748;2023-07-22T08:45:48;4.33;;;3.00;;
49175;SDS011;35012;47.200;9.748;2023-07-22T08:48:16;2.97;;;2.63;;
49175;SDS011;35012;47.200;9.748;2023-07-22T08:50:49;3.93;;;2.97;;
49175;SDS011;35012;47.200;9.748;2023-07-22T08:53:15;3.47;;;2.63;;
49175;SDS011;35012;47.200;9.748;2023-07-22T08:55:41;3.63;;;2.50;;
49175;SDS011;35012;47.200;9.748;2023-07-22T08:58:08;2.50;;;2.30;;
49175;SDS011;35012;47.200;9.748;2023-07-22T09:00:35;4.03;;;2.90;;
49175;SDS011;35012;47.200;9.748;2023-07-22T09:03:01;2.73;;;2.40;;
49175;SDS011;35012;47.200;9.748;2023-07-22T09:05:27;3.83;;;2.73;;
49175;SDS011;35012;47.200;9.748;2023-07-22T09:07:53;4.43;;;2.70;;
49175;SDS011;35012;47.200;9.748;2023-07-22T09:10:22;3.13;;;2.57;;
49175;SDS011;35012;47.200;9.748;2023-07-22T09:12:50;4.10;;;2.53;;
49175;SDS011;35012;47.200;9.748;2023-07-22T09:15:16;4.17;;;2.67;;
49175;SDS011;35012;47.200;9.748;2023-07-22T09:17:42;3.10;;;2.57;;
49175;SDS011;35012;47.200;9.748;2023-07-22T09:20:08;3.33;;;2.70;;
49175;SDS011;35012;47.200;9.748;2023-07-22T09:22:33;2.93;;;2.40;;
49175;SDS011;35012;47.200;9.748;2023-07-22T09:27:58;3.10;;;2.70;;
49175;SDS011;35012;47.200;9.748;2023-07-22T09:30:26;3.17;;;2.27;;
49175;SDS011;35012;47.200;9.748;2023-07-22T09:33:01;3.10;;;2.77;;
49175;SDS011;35012;47.200;9.748;2023-07-22T09:35:44;3.33;;;2.80;;
49175;SDS011;35012;47.200;9.748;2023-07-22T09:38:14;3.63;;;2.63;;
49175;SDS011;35012;47.200;9.748;2023-07-22T09:40:43;5.40;;;2.77;;
49175;SDS011;35012;47.200;9.748;2023-07-22T09:43:09;2.70;;;2.33;;
49175;SDS011;35012;47.200;9.748;2023-07-22T09:45:37;5.07;;;2.83;;
49175;SDS011;35012;47.200;9.748;2023-07-22T09:48:03;2.73;;;2.40;;
49175;SDS011;35012;47.200;9.748;2023-07-22T09:50:29;2.67;;;2.10;;
49175;SDS011;35012;47.200;9.748;2023-07-22T09:52:55;2.97;;;2.37;;
49175;SDS011;35012;47.200;9.748;2023-07-22T09:55:26;3.13;;;2.13;;
49175;SDS011;35012;47.200;9.748;2023-07-22T09:57:57;3.00;;;2.33;;
49175;SDS011;35012;47.200;9.748;2023-07-22T10:00:30;4.40;;;2.50;;
49175;SDS011;35012;47.200;9.748;2023-07-22T10:02:57;2.97;;;2.67;;
49175;SDS011;35012;47.200;9.748;2023-07-22T10:05:24;3.87;;;2.23;;
49175;SDS011;35012;47.200;9.748;2023-07-22T10:07:51;3.03;;;2.33;;
49175;SDS011;35012;47.200;9.748;2023-07-22T10:10:20;4.07;;;2.57;;
49175;SDS011;35012;47.200;9.748;2023-07-22T10:12:48;3.40;;;2.70;;
49175;SDS011;35012;47.200;9.748;2023-07-22T10:15:14;2.50;;;2.30;;
49175;SDS011;35012;47.200;9.748;2023-07-22T10:17:41;3.70;;;2.37;;
49175;SDS011;35012;47.200;9.748;2023-07-22T10:20:10;2.40;;;2.10;;
49175;SDS011;35012;47.200;9.748;2023-07-22T10:22:43;4.50;;;2.10;;
49175;SDS011;35012;47.200;9.748;2023-07-22T10:25:10;3.83;;;2.33;;
49175;SDS011;35012;47.200;9.748;2023-07-22T10:27:37;2.43;;;2.13;;
49175;SDS011;35012;47.200;9.748;2023-07-22T10:30:05;3.80;;;2.30;;
49175;SDS011;35012;47.200;9.748;2023-07-22T10:32:32;3.50;;;2.10;;
49175;SDS011;35012;47.200;9.748;2023-07-22T10:35:02;2.73;;;2.20;;
49175;SDS011;35012;47.200;9.748;2023-07-22T10:37:32;3.87;;;2.27;;
49175;SDS011;35012;47.200;9.748;2023-07-22T10:39:59;2.63;;;2.13;;
49175;SDS011;35012;47.200;9.748;2023-07-22T10:42:26;5.10;;;2.67;;
49175;SDS011;35012;47.200;9.748;2023-07-22T10:44:51;3.28;;;2.03;;
49175;SDS011;35012;47.200;9.748;2023-07-22T10:47:32;3.13;;;2.45;;
49175;SDS011;35012;47.200;9.748;2023-07-22T10:50:05;3.40;;;2.10;;
49175;SDS011;35012;47.200;9.748;2023-07-22T10:52:42;2.50;;;2.30;;
49175;SDS011;35012;47.200;9.748;2023-07-22T10:55:16;5.10;;;2.50;;
49175;SDS011;35012;47.200;9.748;2023-07-22T10:57:52;3.85;;;2.60;;
49175;SDS011;35012;47.200;9.748;2023-07-22T11:00:20;2.80;;;2.28;;
49175;SDS011;35012;47.200;9.748;2023-07-22T11:08:36;2.50;;;2.30;;
49175;SDS011;35012;47.200;9.748;2023-07-22T11:11:03;4.38;;;2.45;;
49175;SDS011;35012;47.200;9.748;2023-07-22T11:13:28;4.55;;;2.47;;
49175;SDS011;35012;47.200;9.748;2023-07-22T11:15:58;3.20;;;2.33;;
49175;SDS011;35012;47.200;9.748;2023-07-22T11:18:44;4.25;;;2.38;;
49175;SDS011;35012;47.200;9.748;2023-07-22T11:21:10;2.55;;;2.25;;
49175;SDS011;35012;47.200;9.748;2023-07-22T11:23:36;2.97;;;2.67;;
49175;SDS011;35012;47.200;9.748;2023-07-22T11:26:03;2.90;;;2.55;;
49175;SDS011;35012;47.200;9.748;2023-07-22T11:28:29;3.45;;;2.45;;
49175;SDS011;35012;47.200;9.748;2023-07-22T11:30:56;2.88;;;2.42;;
49175;SDS011;35012;47.200;9.748;2023-07-22T11:33:21;2.97;;;2.30;;
49175;SDS011;35012;47.200;9.748;2023-07-22T11:35:47;4.85;;;2.72;;
49175;SDS011;35012;47.200;9.748;2023-07-22T11:38:13;3.00;;;2.40;;
49175;SDS011;35012;47.200;9.748;2023-07-22T11:40:38;2.90;;;2.20;;
49175;SDS011;35012;47.200;9.748;2023-07-22T11:43:04;3.47;;;2.80;;
49175;SDS011;35012;47.200;9.748;2023-07-22T11:45:30;2.58;;;2.30;;
49175;SDS011;35012;47.200;9.748;2023-07-22T11:47:55;3.58;;;2.55;;
49175;SDS011;35012;47.200;9.748;2023-07-22T11:50:33;3.45;;;2.40;;
49175;SDS011;35012;47.200;9.748;2023-07-22T11:52:59;2.97;;;2.20;;
49175;SDS011;35012;47.200;9.748;2023-07-22T11:55:25;2.47;;;2.20;;
49175;SDS011;35012;47.200;9.748;2023-07-22T11:57:53;3.13;;;2.65;;
49175;SDS011;35012;47.200;9.748;2023-07-22T12:00:19;3.97;;;2.55;;
49175;SDS011;35012;47.200;9.748;2023-07-22T12:02:45;3.00;;;2.42;;
49175;SDS011;35012;47.200;9.748;2023-07-22T12:05:12;4.30;;;2.55;;
49175;SDS011;35012;47.200;9.748;2023-07-22T12:07:45;3.40;;;2.15;;
49175;SDS011;35012;47.200;9.748;2023-07-22T12:10:11;2.83;;;2.10;;
49175;SDS011;35012;47.200;9.748;2023-07-22T12:12:41;2.92;;;2.60;;
49175;SDS011;35012;47.200;9.748;2023-07-22T12:20:27;2.83;;;2.53;;
49175;SDS011;35012;47.200;9.748;2023-07-22T12:22:55;3.20;;;2.55;;
49175;SDS011;35012;47.200;9.748;2023-07-22T12:25:21;2.70;;;2.20;;
49175;SDS011;35012;47.200;9.748;2023-07-22T12:27:47;3.17;;;2.45;;
49175;SDS011;35012;47.200;9.748;2023-07-22T12:30:13;2.60;;;2.33;;
49175;SDS011;35012;47.200;9.748;2023-07-22T12:32:39;3.28;;;2.75;;
49175;SDS011;35012;47.200;9.748;2023-07-22T12:35:05;3.88;;;2.65;;
49175;SDS011;35012;47.200;9.748;2023-07-22T12:37:31;3.40;;;2.40;;
49175;SDS011;35012;47.200;9.748;2023-07-22T12:39:56;3.40;;;2.42;;
49175;SDS011;35012;47.200;9.748;2023-07-22T12:42:23;3.22;;;2.53;;
49175;SDS011;35012;47.200;9.748;2023-07-22T12:44:48;3.58;;;2.50;;
49175;SDS011;35012;47.200;9.748;2023-07-22T12:47:14;4.63;;;2.50;;
49175;SDS011;35012;47.200;9.748;2023-07-22T12:49:40;3.65;;;2.45;;
49175;SDS011;35012;47.200;9.748;2023-07-22T12:52:06;3.47;;;2.47;;
49175;SDS011;35012;47.200;9.748;2023-07-22T12:54:34;3.20;;;2.47;;
49175;SDS011;35012;47.200;9.748;2023-07-22T12:57:01;2.70;;;2.28;;
49175;SDS011;35012;47.200;9.748;2023-07-22T12:59:27;2.63;;;2.40;;
49175;SDS011;35012;47.200;9.748;2023-07-22T13:01:52;3.25;;;2.45;;
49175;SDS011;35012;47.200;9.748;2023-07-22T13:04:19;2.65;;;2.42;;
49175;SDS011;35012;47.200;9.748;2023-07-22T13:06:44;2.70;;;2.47;;
49175;SDS011;35012;47.200;9.748;2023-07-22T13:09:10;3.38;;;2.35;;
49175;SDS011;35012;47.200;9.748;2023-07-22T13:11:36;3.28;;;2.58;;
49175;SDS011;35012;47.200;9.748;2023-07-22T13:14:01;3.20;;;2.28;;
49175;SDS011;35012;47.200;9.748;2023-07-22T13:16:27;4.38;;;2.35;;
49175;SDS011;35012;47.200;9.748;2023-07-22T13:18:54;3.13;;;2.60;;
49175;SDS011;35012;47.200;9.748;2023-07-22T13:21:19;4.30;;;2.58;;
49175;SDS011;35012;47.200;9.748;2023-07-22T13:23:45;2.90;;;2.28;;
49175;SDS011;35012;47.200;9.748;2023-07-22T13:26:11;3.13;;;2.42;;
49175;SDS011;35012;47.200;9.748;2023-07-22T13:28:36;2.95;;;2.47;;
49175;SDS011;35012;47.200;9.748;2023-07-22T13:31:02;4.72;;;2.42;;
49175;SDS011;35012;47.200;9.748;2023-07-22T13:33:27;2.90;;;2.58;;
49175;SDS011;35012;47.200;9.748;2023-07-22T13:35:53;3.22;;;2.60;;
49175;SDS011;35012;47.200;9.748;2023-07-22T13:38:18;2.97;;;2.42;;
49175;SDS011;35012;47.200;9.748;2023-07-22T13:40:44;2.38;;;2.17;;
49175;SDS011;35012;47.200;9.748;2023-07-22T13:43:09;2.90;;;2.60;;
49175;SDS011;35012;47.200;9.748;2023-07-22T13:45:35;3.13;;;2.60;;
49175;SDS011;35012;47.200;9.748;2023-07-22T13:48:01;3.15;;;2.45;;
49175;SDS011;35012;47.200;9.748;2023-07-22T13:50:26;4.05;;;2.67;;
49175;SDS011;35012;47.200;9.748;2023-07-22T13:52:52;3.40;;;2.40;;
49175;SDS011;35012;47.200;9.748;2023-07-22T13:55:17;3.55;;;2.60;;
49175;SDS011;35012;47.200;9.748;2023-07-22T13:57:43;2.97;;;2.58;;
49175;SDS011;35012;47.200;9.748;2023-07-22T14:00:09;2.92;;;2.50;;
49175;SDS011;35012;47.200;9.748;2023-07-22T14:02:35;3.00;;;2.25;;
49175;SDS011;35012;47.200;9.748;2023-07-22T14:05:02;3.78;;;2.42;;
49175;SDS011;35012;47.200;9.748;2023-07-22T14:07:28;2.70;;;2.35;;
49175;SDS011;35012;47.200;9.748;2023-07-22T14:09:54;3.40;;;2.60;;
49175;SDS011;35012;47.200;9.748;2023-07-22T14:12:20;4.00;;;2.90;;
49175;SDS011;35012;47.200;9.748;2023-07-22T14:14:45;3.45;;;2.70;;
49175;SDS011;35012;47.200;9.748;2023-07-22T14:17:11;3.80;;;2.65;;
49175;SDS011;35012;47.200;9.748;2023-07-22T14:19:37;3.25;;;2.40;;
49175;SDS011;35012;47.200;9.748;2023-07-22T14:22:02;5.05;;;2.55;;
49175;SDS011;35012;47.200;9.748;2023-07-22T14:24:29;3.13;;;2.53;;
49175;SDS011;35012;47.200;9.748;2023-07-22T14:26:55;2.92;;;2.40;;
49175;SDS011;35012;47.200;9.748;2023-07-22T14:29:21;2.95;;;2.72;;
49175;SDS011;35012;47.200;9.748;2023-07-22T14:31:47;3.10;;;2.63;;
49175;SDS011;35012;47.200;9.748;2023-07-22T14:34:13;4.03;;;3.60;;
49175;SDS011;35012;47.200;9.748;2023-07-22T14:36:38;3.53;;;2.85;;
49175;SDS011;35012;47.200;9.748;2023-07-22T14:39:04;2.80;;;2.40;;
49175;SDS011;35012;47.200;9.748;2023-07-22T14:41:30;3.95;;;2.63;;
49175;SDS011;35012;47.200;9.748;2023-07-22T14:43:56;3.42;;;2.60;;
49175;SDS011;35012;47.200;9.748;2023-07-22T14:46:22;2.70;;;2.25;;
49175;SDS011;35012;47.200;9.748;2023-07-22T14:48:47;2.65;;;2.42;;
49175;SDS011;35012;47.200;9.748;2023-07-22T14:51:13;4.57;;;2.60;;
49175;SDS011;35012;47.200;9.748;2023-07-22T14:53:39;4.55;;;2.78;;
49175;SDS011;35012;47.200;9.748;2023-07-22T14:56:04;3.58;;;2.83;;
49175;SDS011;35012;47.200;9.748;2023-07-22T14:58:32;3.72;;;2.58;;
49175;SDS011;35012;47.200;9.748;2023-07-22T15:00:57;5.78;;;3.30;;